Forrester Center, West Virginia
Current Conditions -  °F | °C
As of 8:00 PM on Wednesday 26 Nov 2014 (Local Time) from KMRB Reporting Station
Broken Clouds Broken Clouds  
Wind Chill: 30°   Ceiling: 2900
Heat Index: 36°   Visibility: 10mi
Dew Point: 30°   Wind: 7mph
Humidity: 79%   Direction: 320°NW
Pressure: 29.98"   Gusts: NA
Location:  39.3053°N, 77.8555°W
Report Text: KMRB 270100Z 32006KT 10SM BKN029 BKN100 02/M01 A2998 RMK AO2 T00221011
Loading
Personal Weather Stations






























Interactive Weather Map New forecast layout! Learn more

10-Day Weather Forecast

Advertisements
Track Severe Weather on mobile